createdAt,value
2023-12-03T00:00:13.451Z,14.43
2023-12-03T00:02:43.184Z,14.67
2023-12-03T00:05:12.293Z,15.10
2023-12-03T00:07:40.345Z,14.90
2023-12-03T00:10:09.075Z,14.57
2023-12-03T00:12:39.537Z,15.70
2023-12-03T00:15:09.860Z,15.20
2023-12-03T00:17:37.694Z,15.63
2023-12-03T00:20:06.638Z,14.50
2023-12-03T00:22:34.335Z,14.53
2023-12-03T00:25:01.908Z,14.60
2023-12-03T00:27:29.481Z,14.10
2023-12-03T00:29:58.421Z,14.50
2023-12-03T00:32:27.431Z,15.13
2023-12-03T00:34:55.037Z,15.83
2023-12-03T00:37:22.661Z,14.87
2023-12-03T00:39:51.242Z,14.87
2023-12-03T00:42:18.960Z,15.13
2023-12-03T00:44:47.397Z,14.90
2023-12-03T00:47:15.053Z,15.60
2023-12-03T00:49:45.568Z,14.40
2023-12-03T00:52:13.473Z,14.33
2023-12-03T00:54:41.151Z,15.53
2023-12-03T00:57:08.863Z,15.23
2023-12-03T00:59:36.636Z,15.53
2023-12-03T01:02:04.388Z,15.40
2023-12-03T01:04:32.052Z,12.87
2023-12-03T01:07:01.014Z,14.97
2023-12-03T01:09:31.706Z,15.50
2023-12-03T01:11:59.605Z,14.10
2023-12-03T01:14:27.188Z,14.00
2023-12-03T01:16:54.763Z,13.57
2023-12-03T01:19:23.053Z,14.27
2023-12-03T01:21:51.489Z,15.13
2023-12-03T01:24:20.570Z,15.80
2023-12-03T01:26:48.135Z,14.27
2023-12-03T01:29:15.764Z,14.70
2023-12-03T01:31:43.331Z,15.00
2023-12-03T01:34:10.995Z,14.97
2023-12-03T01:36:38.654Z,15.13
2023-12-03T01:39:06.659Z,14.80
2023-12-03T01:41:36.208Z,13.53
2023-12-03T01:44:03.943Z,14.03
2023-12-03T01:46:31.558Z,14.00
2023-12-03T01:48:59.226Z,14.43
2023-12-03T01:51:27.465Z,14.23
2023-12-03T01:53:56.803Z,14.87
2023-12-03T01:56:24.387Z,15.20
2023-12-03T01:58:53.913Z,14.70
2023-12-03T02:01:21.472Z,14.83
2023-12-03T02:03:49.343Z,14.33
2023-12-03T02:06:17.205Z,15.40
2023-12-03T02:08:44.980Z,14.30
2023-12-03T02:11:13.084Z,14.90
2023-12-03T02:13:41.170Z,15.27
2023-12-03T02:16:11.212Z,15.73
2023-12-03T02:18:40.373Z,15.07
2023-12-03T02:21:09.927Z,15.30
2023-12-03T02:23:38.876Z,14.73
2023-12-03T02:26:07.861Z,14.40
2023-12-03T02:28:35.464Z,14.60
2023-12-03T02:31:03.242Z,14.80
2023-12-03T02:33:30.879Z,15.27
2023-12-03T02:35:58.556Z,13.70
2023-12-03T02:38:26.169Z,15.10
2023-12-03T02:40:56.052Z,15.77
2023-12-03T02:43:23.649Z,15.57
2023-12-03T02:45:51.257Z,14.80
2023-12-03T02:48:19.053Z,14.70
2023-12-03T02:50:46.699Z,14.40
2023-12-03T02:53:14.287Z,14.43
2023-12-03T02:55:41.860Z,14.43
2023-12-03T02:58:10.845Z,15.70
2023-12-03T03:00:38.534Z,14.40
2023-12-03T03:03:06.139Z,14.17
2023-12-03T03:05:33.750Z,15.37
2023-12-03T03:08:01.352Z,14.60
2023-12-03T03:10:29.016Z,14.43
2023-12-03T03:12:56.602Z,14.20
2023-12-03T03:15:25.593Z,14.10
2023-12-03T03:17:53.296Z,14.50
2023-12-03T03:20:22.893Z,13.77
2023-12-03T03:22:51.621Z,15.30
2023-12-03T03:25:19.526Z,14.90
2023-12-03T03:27:47.249Z,14.43
2023-12-03T03:30:15.210Z,14.70
2023-12-03T03:32:44.214Z,13.97
2023-12-03T03:35:11.836Z,14.40
2023-12-03T03:37:39.409Z,15.27
2023-12-03T03:40:08.599Z,15.80
2023-12-03T03:42:36.244Z,15.67
2023-12-03T03:45:04.104Z,15.47
2023-12-03T03:47:32.255Z,14.37
2023-12-03T03:50:02.018Z,14.10
2023-12-03T03:52:29.638Z,15.20
2023-12-03T03:54:57.237Z,15.60
2023-12-03T03:57:24.864Z,15.37
2023-12-03T03:59:52.579Z,16.00
2023-12-03T04:02:20.191Z,15.20
2023-12-03T04:04:48.377Z,15.87
2023-12-03T04:07:17.540Z,16.40
2023-12-03T04:09:46.678Z,15.93
2023-12-03T04:12:14.307Z,15.93
2023-12-03T04:14:42.904Z,16.10
2023-12-03T04:17:10.599Z,15.73
2023-12-03T04:19:38.416Z,15.70
2023-12-03T04:22:06.185Z,16.03
2023-12-03T04:24:35.247Z,15.77
2023-12-03T04:27:02.886Z,15.87
2023-12-03T04:29:30.470Z,15.73
2023-12-03T04:31:58.041Z,15.83
2023-12-03T04:34:25.707Z,15.13
2023-12-03T04:36:54.618Z,16.70
2023-12-03T04:39:22.226Z,16.40
2023-12-03T04:41:51.306Z,16.10
2023-12-03T04:44:18.914Z,16.37
2023-12-03T04:46:46.490Z,15.97
2023-12-03T04:49:14.104Z,16.00
2023-12-03T04:51:41.943Z,16.27
2023-12-03T04:54:09.620Z,16.53
2023-12-03T04:56:37.211Z,16.03
2023-12-03T04:59:07.824Z,16.70
2023-12-03T05:01:35.493Z,15.87
2023-12-03T05:04:03.182Z,15.57
2023-12-03T05:06:30.969Z,16.27
2023-12-03T05:08:58.712Z,14.50
2023-12-03T05:11:26.452Z,14.87
2023-12-03T05:13:54.088Z,15.47
2023-12-03T05:16:23.023Z,15.60
2023-12-03T05:18:50.670Z,16.73
2023-12-03T05:21:18.324Z,16.10
2023-12-03T05:23:45.884Z,16.50
2023-12-03T05:26:13.474Z,15.97
2023-12-03T05:28:41.051Z,15.97
2023-12-03T05:31:09.010Z,16.63
2023-12-03T05:33:38.093Z,15.77
2023-12-03T05:36:06.593Z,16.30
2023-12-03T05:38:34.165Z,17.07
2023-12-03T05:41:01.780Z,15.90
2023-12-03T05:43:29.324Z,16.50
2023-12-03T05:45:56.942Z,18.57
2023-12-03T05:48:24.628Z,18.93
2023-12-03T05:50:53.649Z,17.93
2023-12-03T05:53:21.252Z,18.10
2023-12-03T05:55:48.857Z,17.93
2023-12-03T05:58:16.473Z,18.17
2023-12-03T06:00:44.069Z,19.23
2023-12-03T06:03:12.273Z,19.73
2023-12-03T06:05:40.178Z,18.80
2023-12-03T06:08:09.138Z,19.37
2023-12-03T06:10:36.697Z,19.43
2023-12-03T06:13:04.285Z,20.07
2023-12-03T06:15:31.877Z,19.50
2023-12-03T06:17:59.499Z,20.20
2023-12-03T06:20:27.086Z,20.63
2023-12-03T06:22:54.711Z,20.20
2023-12-03T06:25:23.653Z,21.17
2023-12-03T06:27:51.279Z,19.10
2023-12-03T06:30:19.586Z,19.60
2023-12-03T06:32:47.295Z,20.23
2023-12-03T06:35:16.846Z,20.53
2023-12-03T06:37:44.501Z,21.73
2023-12-03T06:40:12.770Z,20.60
2023-12-03T06:42:41.826Z,21.57
2023-12-03T06:45:10.670Z,21.13
2023-12-03T06:47:38.288Z,21.77
2023-12-03T06:50:06.968Z,21.20
2023-12-03T06:52:34.581Z,20.67
2023-12-03T06:55:02.127Z,22.17
2023-12-03T06:57:29.822Z,20.97
2023-12-03T06:59:58.750Z,22.30
2023-12-03T07:02:26.978Z,21.77
2023-12-03T07:04:54.591Z,22.37
2023-12-03T07:07:22.781Z,21.20
2023-12-03T07:09:50.514Z,22.97
2023-12-03T07:12:18.689Z,22.20
2023-12-03T07:14:46.312Z,22.83
2023-12-03T07:17:15.321Z,21.57
2023-12-03T07:19:44.545Z,22.20
2023-12-03T07:22:12.832Z,23.20
2023-12-03T07:24:40.796Z,22.40
2023-12-03T07:27:08.606Z,21.67
2023-12-03T07:29:36.337Z,22.43
2023-12-03T07:32:04.496Z,22.40
2023-12-03T07:34:33.453Z,22.73
2023-12-03T07:37:01.038Z,22.80
2023-12-03T07:39:28.651Z,23.37
2023-12-03T07:41:56.565Z,22.57
2023-12-03T07:44:24.735Z,22.60
2023-12-03T07:46:54.386Z,22.53
2023-12-03T07:49:22.013Z,22.90
2023-12-03T07:51:51.095Z,21.87
2023-12-03T07:54:18.952Z,21.60
2023-12-03T07:56:46.705Z,21.37
2023-12-03T07:59:14.265Z,22.27
2023-12-03T08:01:41.903Z,21.60
2023-12-03T08:04:09.611Z,21.47
2023-12-03T08:06:37.353Z,21.50
2023-12-03T08:09:06.487Z,22.70
2023-12-03T08:11:34.459Z,21.47
2023-12-03T08:14:02.038Z,21.30
2023-12-03T08:16:29.626Z,20.77
2023-12-03T08:18:57.343Z,21.27
2023-12-03T08:21:25.030Z,22.10
2023-12-03T08:23:52.588Z,21.10
2023-12-03T08:26:21.580Z,22.30
2023-12-03T08:28:49.193Z,20.03
2023-12-03T08:31:18.309Z,19.43
2023-12-03T08:33:46.504Z,19.60
2023-12-03T08:36:19.389Z,19.40
2023-12-03T08:38:47.085Z,19.53
2023-12-03T08:41:14.657Z,18.60
2023-12-03T08:43:43.568Z,19.43
2023-12-03T08:46:11.931Z,18.10
2023-12-03T08:48:39.556Z,18.97
2023-12-03T08:51:07.901Z,17.23
2023-12-03T08:53:35.515Z,18.13
2023-12-03T08:56:03.308Z,17.57
2023-12-03T08:58:30.906Z,17.63
2023-12-03T09:00:59.868Z,17.37
2023-12-03T09:03:27.590Z,17.10
2023-12-03T09:05:56.465Z,17.20
2023-12-03T09:08:24.085Z,16.80
2023-12-03T09:10:51.660Z,17.97
2023-12-03T09:13:19.388Z,16.63
2023-12-03T09:15:47.187Z,16.70
2023-12-03T09:18:16.690Z,17.57
2023-12-03T09:20:44.631Z,16.77
2023-12-03T09:23:12.255Z,16.60
2023-12-03T09:25:39.876Z,16.60
2023-12-03T09:28:07.493Z,16.27
2023-12-03T09:30:35.117Z,16.27
2023-12-03T09:33:02.783Z,16.50
2023-12-03T09:35:33.298Z,16.93
2023-12-03T09:38:00.914Z,17.00
2023-12-03T09:40:28.579Z,16.53
2023-12-03T09:42:58.134Z,16.90
2023-12-03T09:45:27.505Z,16.90
2023-12-03T09:48:01.996Z,17.40
2023-12-03T09:50:32.253Z,17.03
2023-12-03T09:53:01.585Z,17.33
2023-12-03T09:55:29.863Z,17.80
2023-12-03T09:57:57.878Z,16.20
2023-12-03T10:00:25.793Z,16.97
2023-12-03T10:02:55.135Z,16.07
2023-12-03T10:05:22.924Z,16.17
2023-12-03T10:07:52.110Z,15.13
2023-12-03T10:10:22.189Z,16.73
2023-12-03T10:12:51.677Z,15.80
2023-12-03T10:15:19.347Z,14.93
2023-12-03T10:17:46.985Z,15.43
2023-12-03T10:20:27.471Z,15.07
2023-12-03T10:22:58.379Z,15.37
2023-12-03T10:25:30.400Z,15.10
2023-12-03T10:28:00.081Z,15.10
2023-12-03T10:30:27.898Z,15.53
2023-12-03T10:32:56.322Z,14.53
2023-12-03T10:35:24.779Z,14.83
2023-12-03T10:37:52.762Z,13.97
2023-12-03T10:40:22.065Z,15.40
2023-12-03T10:42:49.662Z,14.70
2023-12-03T10:45:17.884Z,14.40
2023-12-03T10:47:46.027Z,14.00
2023-12-03T10:50:15.696Z,14.00
2023-12-03T10:52:43.741Z,13.83
2023-12-03T10:55:11.520Z,14.20
2023-12-03T10:57:50.431Z,14.73
2023-12-03T11:00:20.022Z,14.47
2023-12-03T11:02:50.900Z,14.77
2023-12-03T11:05:27.429Z,14.67
2023-12-03T11:07:56.668Z,13.53
2023-12-03T11:10:24.477Z,14.00
2023-12-03T11:12:53.736Z,14.60
2023-12-03T11:15:22.995Z,14.70
2023-12-03T11:17:53.047Z,15.03
2023-12-03T11:20:25.406Z,15.03
2023-12-03T11:23:10.309Z,14.47
2023-12-03T11:25:47.112Z,15.23
2023-12-03T11:28:16.142Z,14.70
2023-12-03T11:30:44.203Z,15.20
2023-12-03T11:33:15.033Z,14.20
2023-12-03T11:35:44.226Z,15.60
2023-12-03T11:38:16.742Z,15.47
2023-12-03T11:40:44.389Z,15.73
2023-12-03T11:43:26.412Z,14.57
2023-12-03T11:45:54.893Z,15.20
2023-12-03T11:48:25.150Z,15.53
2023-12-03T11:50:52.926Z,15.03
2023-12-03T11:53:35.125Z,15.30
2023-12-03T11:56:03.485Z,15.13
2023-12-03T11:58:32.461Z,16.17
2023-12-03T12:01:00.081Z,15.57
2023-12-03T12:03:29.315Z,16.93
2023-12-03T12:05:57.201Z,16.73
2023-12-03T12:08:25.647Z,16.70
2023-12-03T12:10:55.365Z,16.77
2023-12-03T12:13:24.525Z,15.87
2023-12-03T12:15:56.419Z,16.17
2023-12-03T12:18:24.827Z,15.97
2023-12-03T12:20:52.703Z,15.63
2023-12-03T12:23:20.337Z,16.33
2023-12-03T12:25:48.273Z,14.93
2023-12-03T12:28:15.961Z,15.90
2023-12-03T12:30:43.690Z,14.60
2023-12-03T12:33:12.729Z,14.97
2023-12-03T12:35:40.479Z,14.77
2023-12-03T12:38:09.235Z,15.63
2023-12-03T12:40:40.294Z,16.00
2023-12-03T12:43:09.562Z,15.33
2023-12-03T12:45:39.431Z,15.20
2023-12-03T12:48:25.612Z,15.67
2023-12-03T12:50:53.840Z,15.53
2023-12-03T12:53:21.917Z,15.67
2023-12-03T12:55:51.483Z,14.93
2023-12-03T12:58:19.392Z,15.43
2023-12-03T13:00:47.020Z,15.90
2023-12-03T13:03:14.963Z,16.60
2023-12-03T13:05:44.422Z,15.40
2023-12-03T13:08:12.966Z,15.37
2023-12-03T13:10:40.599Z,16.17
2023-12-03T13:13:08.654Z,15.43
2023-12-03T13:15:37.154Z,15.77
2023-12-03T13:18:12.765Z,15.80
2023-12-03T13:20:48.629Z,15.50
2023-12-03T13:23:17.847Z,16.80
2023-12-03T13:25:45.823Z,15.93
2023-12-03T13:28:13.414Z,15.77
2023-12-03T13:30:41.548Z,16.37
2023-12-03T13:33:09.190Z,15.67
2023-12-03T13:35:36.819Z,15.20
2023-12-03T13:38:05.751Z,15.83
2023-12-03T13:40:33.412Z,15.97
2023-12-03T13:43:01.024Z,15.43
2023-12-03T13:45:28.743Z,16.27
2023-12-03T13:47:57.011Z,15.83
2023-12-03T13:50:24.695Z,16.50
2023-12-03T13:52:52.837Z,15.77
2023-12-03T13:55:21.807Z,15.83
2023-12-03T13:57:49.379Z,17.07
2023-12-03T14:00:18.043Z,16.87
2023-12-03T14:02:47.740Z,15.93
2023-12-03T14:05:21.395Z,15.43
2023-12-03T14:07:53.825Z,16.27
2023-12-03T14:10:24.457Z,16.00
2023-12-03T14:12:52.241Z,15.23
2023-12-03T14:15:19.914Z,15.73
2023-12-03T14:17:47.590Z,15.70
2023-12-03T14:20:15.272Z,16.30
2023-12-03T14:22:42.905Z,15.73
2023-12-03T14:25:11.114Z,16.50
2023-12-03T14:27:41.458Z,15.93
2023-12-03T14:30:11.444Z,15.20
2023-12-03T14:32:39.295Z,15.03
2023-12-03T14:35:09.413Z,16.30
2023-12-03T14:37:37.001Z,16.20
2023-12-03T14:40:05.307Z,15.80
2023-12-03T14:42:32.961Z,15.57
2023-12-03T14:45:02.149Z,16.30
2023-12-03T14:47:29.804Z,15.37
2023-12-03T14:49:57.452Z,16.50
2023-12-03T14:52:25.413Z,14.57
2023-12-03T14:54:53.108Z,15.63
2023-12-03T14:57:20.726Z,15.93
2023-12-03T14:59:48.388Z,16.50
2023-12-03T15:02:17.333Z,16.50
2023-12-03T15:04:45.107Z,16.10
2023-12-03T15:07:12.690Z,16.43
2023-12-03T15:09:40.597Z,16.70
2023-12-03T15:12:08.678Z,18.10
2023-12-03T15:14:36.305Z,16.80
2023-12-03T15:17:04.464Z,16.30
2023-12-03T15:19:34.475Z,14.90
2023-12-03T15:22:02.369Z,16.07
2023-12-03T15:24:30.024Z,16.23
2023-12-03T15:26:57.847Z,14.40
2023-12-03T15:29:25.609Z,14.50
2023-12-03T15:31:53.249Z,15.87
2023-12-03T15:34:20.940Z,14.37
2023-12-03T15:36:50.054Z,14.67
2023-12-03T15:39:17.646Z,14.03
2023-12-03T15:41:45.834Z,14.80
2023-12-03T15:44:13.407Z,15.37
2023-12-03T15:46:41.151Z,17.03
2023-12-03T15:49:13.504Z,15.90
2023-12-03T15:51:47.120Z,15.53
2023-12-03T15:54:18.022Z,15.77
2023-12-03T15:56:46.193Z,15.23
2023-12-03T15:59:13.776Z,15.80
2023-12-03T16:01:41.431Z,15.23
2023-12-03T16:04:09.108Z,15.87
2023-12-03T16:06:37.283Z,16.13
2023-12-03T16:09:05.104Z,16.40
2023-12-03T16:11:34.050Z,16.17
2023-12-03T16:14:01.711Z,16.80
2023-12-03T16:16:29.449Z,16.40
2023-12-03T16:18:57.227Z,17.30
2023-12-03T16:21:24.995Z,15.83
2023-12-03T16:23:52.609Z,15.93
2023-12-03T16:26:20.185Z,15.90
2023-12-03T16:28:49.093Z,16.07
2023-12-03T16:31:16.693Z,16.77
2023-12-03T16:33:45.939Z,16.63
2023-12-03T16:36:13.681Z,16.23
2023-12-03T16:38:41.267Z,16.93
2023-12-03T16:41:11.726Z,16.63
2023-12-03T16:43:39.692Z,15.27
2023-12-03T16:46:10.749Z,15.70
2023-12-03T16:48:38.513Z,15.43
2023-12-03T16:51:07.047Z,15.60
2023-12-03T16:53:34.626Z,15.27
2023-12-03T16:56:02.239Z,15.47
2023-12-03T16:58:29.794Z,16.03
2023-12-03T17:00:57.377Z,15.43
2023-12-03T17:03:26.348Z,15.00
2023-12-03T17:05:55.528Z,14.47
2023-12-03T17:08:23.181Z,15.70
2023-12-03T17:10:50.797Z,16.40
2023-12-03T17:13:20.003Z,16.10
2023-12-03T17:15:49.307Z,16.90
2023-12-03T17:18:17.284Z,16.13
2023-12-03T17:20:46.723Z,15.83
2023-12-03T17:23:14.554Z,15.73
2023-12-03T17:25:42.149Z,15.90
2023-12-03T17:28:09.747Z,15.60
2023-12-03T17:30:37.474Z,16.53
2023-12-03T17:33:05.234Z,16.73
2023-12-03T17:35:33.012Z,16.13
2023-12-03T17:38:02.913Z,16.30
2023-12-03T17:40:30.544Z,16.47
2023-12-03T17:42:58.189Z,16.57
2023-12-03T17:45:27.361Z,17.00
2023-12-03T17:47:55.363Z,16.80
2023-12-03T17:50:23.001Z,16.97
2023-12-03T17:52:50.564Z,16.77
2023-12-03T17:55:20.397Z,17.73
2023-12-03T17:57:48.097Z,15.60
2023-12-03T18:00:16.730Z,16.30
2023-12-03T18:02:44.385Z,16.73
2023-12-03T18:05:12.037Z,17.37
2023-12-03T18:07:39.764Z,17.00
2023-12-03T18:10:11.060Z,17.40
2023-12-03T18:12:40.104Z,17.17
2023-12-03T18:15:08.805Z,16.80
2023-12-03T18:17:37.269Z,16.77
2023-12-03T18:20:05.630Z,16.33
2023-12-03T18:22:33.730Z,16.60
2023-12-03T18:25:02.090Z,17.60
2023-12-03T18:27:30.251Z,17.50
2023-12-03T18:30:00.335Z,17.90
2023-12-03T18:32:30.480Z,16.93
2023-12-03T18:34:58.435Z,18.03
2023-12-03T18:37:26.008Z,19.30
2023-12-03T18:39:53.628Z,18.40
2023-12-03T18:42:21.290Z,19.53
2023-12-03T18:44:49.240Z,20.27
2023-12-03T18:47:19.013Z,19.20
2023-12-03T18:49:46.722Z,19.50
2023-12-03T18:52:14.317Z,19.77
2023-12-03T18:54:43.515Z,19.97
2023-12-03T18:57:14.032Z,19.57
2023-12-03T18:59:44.069Z,18.60
2023-12-03T19:02:11.872Z,17.60
2023-12-03T19:04:40.845Z,19.47
2023-12-03T19:07:08.481Z,20.30
2023-12-03T19:09:36.514Z,19.00
2023-12-03T19:12:04.544Z,18.43
2023-12-03T19:14:32.109Z,18.40
2023-12-03T19:16:59.850Z,19.77
2023-12-03T19:19:27.533Z,17.93
2023-12-03T19:21:56.584Z,17.80
2023-12-03T19:24:24.302Z,19.07
2023-12-03T19:26:52.822Z,16.90
2023-12-03T19:29:20.423Z,18.60
2023-12-03T19:31:49.554Z,18.37
2023-12-03T19:34:17.338Z,17.73
2023-12-03T19:36:45.006Z,16.70
2023-12-03T19:39:14.037Z,18.00
2023-12-03T19:41:41.724Z,16.83
2023-12-03T19:44:09.316Z,16.53
2023-12-03T19:46:37.027Z,17.73
2023-12-03T19:49:04.801Z,16.67
2023-12-03T19:51:32.517Z,17.13
2023-12-03T19:54:00.255Z,17.83
2023-12-03T19:56:29.407Z,17.30
2023-12-03T19:59:00.369Z,17.20
2023-12-03T20:01:27.990Z,17.00
2023-12-03T20:03:55.670Z,16.33
2023-12-03T20:06:23.325Z,16.80
2023-12-03T20:08:50.898Z,16.50
2023-12-03T20:11:18.514Z,16.90
2023-12-03T20:13:47.546Z,16.80
2023-12-03T20:16:15.306Z,16.40
2023-12-03T20:18:42.989Z,16.73
2023-12-03T20:21:10.857Z,15.93
2023-12-03T20:23:38.437Z,17.27
2023-12-03T20:26:08.158Z,16.07
2023-12-03T20:28:37.998Z,15.43
2023-12-03T20:31:08.962Z,15.40
2023-12-03T20:33:36.808Z,16.60
2023-12-03T20:36:08.567Z,16.10
2023-12-03T20:38:36.303Z,16.77
2023-12-03T20:41:03.894Z,14.40
2023-12-03T20:43:31.614Z,15.57
2023-12-03T20:45:59.565Z,15.60
2023-12-03T20:48:28.686Z,15.73
2023-12-03T20:50:56.323Z,14.83
2023-12-03T20:53:23.892Z,15.33
2023-12-03T20:55:51.522Z,15.63
2023-12-03T20:58:19.125Z,16.23
2023-12-03T21:00:46.790Z,14.53
2023-12-03T21:03:14.514Z,16.50
2023-12-03T21:05:43.534Z,16.67
2023-12-03T21:08:11.156Z,16.73
2023-12-03T21:10:38.727Z,15.33
2023-12-03T21:13:06.364Z,16.27
2023-12-03T21:15:33.986Z,15.83
2023-12-03T21:18:01.839Z,15.83
2023-12-03T21:20:29.488Z,15.43
2023-12-03T21:22:58.938Z,14.97
2023-12-03T21:25:27.419Z,15.80
2023-12-03T21:27:55.937Z,16.30
2023-12-03T21:30:23.564Z,15.77
2023-12-03T21:32:51.216Z,15.60
2023-12-03T21:35:18.868Z,15.23
2023-12-03T21:37:49.349Z,14.67
2023-12-03T21:40:18.772Z,14.93
2023-12-03T21:42:46.496Z,15.47
2023-12-03T21:45:14.196Z,14.73
2023-12-03T21:47:41.828Z,15.13
2023-12-03T21:50:10.609Z,13.80
2023-12-03T21:52:38.281Z,14.80
2023-12-03T21:55:07.081Z,14.53
2023-12-03T21:57:36.113Z,14.00
2023-12-03T22:00:05.913Z,14.20
2023-12-03T22:02:33.607Z,13.63
2023-12-03T22:05:01.232Z,13.80
2023-12-03T22:07:28.941Z,14.13
2023-12-03T22:09:57.460Z,13.17
2023-12-03T22:12:25.054Z,14.63
2023-12-03T22:14:54.022Z,15.27
2023-12-03T22:17:21.721Z,13.90
2023-12-03T22:19:49.399Z,14.63
2023-12-03T22:22:17.077Z,13.80
2023-12-03T22:24:44.697Z,13.77
2023-12-03T22:27:12.305Z,13.00
2023-12-03T22:29:48.038Z,14.30
2023-12-03T22:32:21.088Z,14.07
2023-12-03T22:34:48.689Z,14.10
2023-12-03T22:37:16.433Z,13.37
2023-12-03T22:39:44.125Z,14.13
2023-12-03T22:42:11.723Z,14.87
2023-12-03T22:44:39.282Z,14.57
2023-12-03T22:47:07.154Z,13.43
2023-12-03T22:49:36.295Z,14.20
2023-12-03T22:52:04.770Z,14.83
2023-12-03T22:54:32.521Z,13.70
2023-12-03T22:57:00.095Z,14.10
2023-12-03T22:59:27.649Z,14.37
2023-12-03T23:01:55.289Z,13.10
2023-12-03T23:04:22.980Z,13.60
2023-12-03T23:06:52.000Z,14.33
2023-12-03T23:09:19.598Z,13.77
2023-12-03T23:11:47.209Z,13.80
2023-12-03T23:14:14.912Z,12.87
2023-12-03T23:16:43.010Z,14.50
2023-12-03T23:19:10.990Z,13.70
2023-12-03T23:21:38.969Z,13.43
2023-12-03T23:24:09.452Z,14.10
2023-12-03T23:26:41.563Z,12.67
2023-12-03T23:29:09.553Z,13.37
2023-12-03T23:31:37.410Z,13.20
2023-12-03T23:34:05.327Z,14.17
2023-12-03T23:36:33.118Z,12.87
2023-12-03T23:39:02.288Z,13.27
2023-12-03T23:41:31.365Z,14.00
2023-12-03T23:43:59.348Z,14.40
2023-12-03T23:46:26.936Z,14.00
2023-12-03T23:48:55.088Z,14.27
2023-12-03T23:51:22.772Z,14.77
2023-12-03T23:53:50.355Z,14.63
2023-12-03T23:56:22.386Z,14.47
2023-12-03T23:58:51.570Z,13.57
